Time;durP1;ratioP1;P1;durP2;ratioP2;P2;SDS_P1;SDS_P2;PMS_P1;PMS_P2;Temp;Humidity;BMP_temperature;BMP_pressure;BME280_temperature;BME280_humidity;BME280_pressure;Samples;Min_cycle;Max_cycle;Signal;HPM_P1;HPM_P2
2023/12/05 00:02:06;;;;;;;0.30;0.30;;;0.30;99.90;;;;;;5086264;28;20039;-86
2023/12/05 00:04:31;;;;;;;0.10;0.10;;;0.40;51.20;;;;;;5087430;28;20036;-86
2023/12/05 00:06:57;;;;;;;1.20;1.07;;;0.40;43.00;;;;;;5082154;28;20068;-86
2023/12/05 00:09:22;;;;;;;1.00;0.90;;;0.30;14.60;;;;;;5078638;28;20049;-87
2023/12/05 00:11:48;;;;;;;1.13;1.03;;;0.30;1.00;;;;;;5078087;28;20044;-86
2023/12/05 00:14:13;;;;;;;1.50;0.67;;;0.30;1.00;;;;;;5073525;28;20536;-86
2023/12/05 00:16:39;;;;;;;0.90;0.87;;;0.40;1.00;;;;;;5076169;28;20040;-87
2023/12/05 00:19:04;;;;;;;0.20;0.20;;;0.30;1.00;;;;;;5076540;28;20095;-86
2023/12/05 00:21:30;;;;;;;0.80;0.80;;;0.30;1.00;;;;;;5063596;28;20397;-86
2023/12/05 00:23:55;;;;;;;0.50;0.50;;;0.30;99.90;;;;;;5061935;28;20056;-86
2023/12/05 00:26:21;;;;;;;0.33;0.33;;;0.30;99.90;;;;;;5077685;28;20032;-87
2023/12/05 00:28:47;;;;;;;0.47;0.47;;;0.80;99.90;;;;;;5077176;28;20428;-86
2023/12/05 00:31:12;;;;;;;0.40;0.40;;;0.30;99.90;;;;;;5069104;28;20051;-86
2023/12/05 00:33:38;;;;;;;0.10;0.10;;;0.30;99.90;;;;;;5077289;28;20143;-86
2023/12/05 00:36:04;;;;;;;2.53;1.25;;;0.30;99.90;;;;;;5077417;28;20036;-86
2023/12/05 00:38:29;;;;;;;0.30;0.30;;;0.30;99.90;;;;;;5077135;28;20106;-86
2023/12/05 00:40:58;;;;;;;1.23;0.93;;;0.30;99.90;;;;;;5077131;28;20036;-86
2023/12/05 00:43:24;;;;;;;1.40;1.13;;;0.30;99.90;;;;;;5075340;28;20383;-87
2023/12/05 00:45:50;;;;;;;2.57;2.37;;;0.30;99.90;;;;;;5069872;28;20043;-87
2023/12/05 00:48:16;;;;;;;0.52;0.52;;;0.30;99.90;;;;;;5067004;28;20045;-86
2023/12/05 00:50:41;;;;;;;2.10;2.00;;;0.30;99.90;;;;;;5069231;28;20054;-86
2023/12/05 00:53:07;;;;;;;0.00;0.00;;;0.30;99.90;;;;;;5075589;28;20135;-88
2023/12/05 00:55:35;;;;;;;0.00;0.00;;;0.30;99.90;;;;;;5076549;28;20082;-86
2023/12/05 00:58:01;;;;;;;0.32;0.32;;;0.20;99.90;;;;;;5076519;28;20064;-86
2023/12/05 01:00:26;;;;;;;0.00;0.00;;;0.20;99.90;;;;;;5076112;28;20478;-87
2023/12/05 01:02:52;;;;;;;0.20;0.20;;;0.20;99.90;;;;;;5077517;28;20036;-87
2023/12/05 01:05:18;;;;;;;0.27;0.27;;;0.20;1.00;;;;;;5078108;28;20095;-87
2023/12/05 01:07:43;;;;;;;0.97;0.97;;;0.20;1.00;;;;;;5078359;28;20040;-86
2023/12/05 01:10:09;;;;;;;0.50;0.50;;;0.20;1.00;;;;;;5077347;28;20418;-86
2023/12/05 01:12:35;;;;;;;0.93;0.93;;;0.20;1.00;;;;;;5080391;28;20049;-86
2023/12/05 01:15:00;;;;;;;2.47;2.20;;;0.20;1.00;;;;;;5081193;28;20051;-86
2023/12/05 01:17:26;;;;;;;0.50;0.50;;;0.20;1.00;;;;;;5081179;28;20036;-87
2023/12/05 01:19:52;;;;;;;0.10;0.10;;;0.20;1.00;;;;;;5081210;28;20033;-86
2023/12/05 01:22:17;;;;;;;0.70;0.70;;;0.20;1.00;;;;;;5080790;28;20037;-86
2023/12/05 01:24:43;;;;;;;0.30;0.30;;;0.10;1.00;;;;;;5080360;28;20093;-87
2023/12/05 01:27:08;;;;;;;0.73;0.73;;;0.20;1.00;;;;;;5079194;28;20080;-87
2023/12/05 01:29:34;;;;;;;0.27;0.27;;;0.20;1.00;;;;;;5080655;28;20032;-86
2023/12/05 01:31:59;;;;;;;1.03;0.80;;;0.10;4.20;;;;;;5072328;28;20041;-86
2023/12/05 01:34:25;;;;;;;0.05;0.05;;;0.20;61.20;;;;;;5068770;28;20043;-86
2023/12/05 01:36:51;;;;;;;1.23;1.13;;;0.20;99.90;;;;;;5074405;28;20036;-86
2023/12/05 01:39:16;;;;;;;1.37;1.27;;;0.10;99.90;;;;;;5080033;28;20063;-87
2023/12/05 01:41:42;;;;;;;0.25;0.25;;;0.20;99.90;;;;;;5079824;28;20048;-86
2023/12/05 01:44:07;;;;;;;2.80;1.77;;;0.10;99.90;;;;;;5071294;28;20045;-87
2023/12/05 01:46:34;;;;;;;0.60;0.55;;;0.10;99.90;;;;;;5079548;28;20043;-87
2023/12/05 01:49:00;;;;;;;1.10;1.07;;;0.10;99.90;;;;;;5078452;28;20528;-86
2023/12/05 01:51:27;;;;;;;0.40;0.40;;;0.10;99.90;;;;;;5076861;28;20052;-86
2023/12/05 01:53:53;;;;;;;1.30;1.17;;;0.10;99.90;;;;;;5078264;28;20058;-86
2023/12/05 01:56:19;;;;;;;0.10;0.10;;;0.10;99.90;;;;;;5080659;28;20128;-86
2023/12/05 01:58:45;;;;;;;0.00;0.00;;;0.10;99.90;;;;;;5078449;28;20517;-87
2023/12/05 02:01:13;;;;;;;1.00;1.00;;;0.10;99.90;;;;;;5078508;28;20190;-87
2023/12/05 02:03:39;;;;;;;1.27;1.17;;;0.10;99.90;;;;;;5076137;28;20115;-87
2023/12/05 02:06:06;;;;;;;0.20;0.20;;;0.10;99.90;;;;;;5078783;28;20482;-86
2023/12/05 02:08:32;;;;;;;1.53;1.03;;;0.10;99.90;;;;;;5079674;28;20094;-87
2023/12/05 02:10:57;;;;;;;1.07;0.97;;;0.10;99.90;;;;;;5079758;28;20078;-87
2023/12/05 02:13:23;;;;;;;0.17;0.17;;;0.00;99.90;;;;;;5078720;28;20037;-87
2023/12/05 02:15:58;;;;;;;1.87;1.70;;;0.10;95.30;;;;;;5042830;28;20048;-87
2023/12/05 02:18:29;;;;;;;0.30;0.30;;;0.00;66.90;;;;;;5078043;28;20048;-87
2023/12/05 02:21:09;;;;;;;0.33;0.33;;;0.00;57.10;;;;;;5079415;28;20048;-87
2023/12/05 02:24:12;;;;;;;1.15;1.05;;;0.00;49.20;;;;;;5074849;28;20560;-87
2023/12/05 02:27:11;;;;;;;2.08;1.45;;;0.00;35.80;;;;;;5073767;28;20071;-87
2023/12/05 02:29:52;;;;;;;1.03;0.93;;;0.00;27.10;;;;;;5079706;28;20040;-87
2023/12/05 02:32:18;;;;;;;0.53;0.53;;;0.00;47.10;;;;;;5072124;28;20045;-87
2023/12/05 02:34:45;;;;;;;0.50;0.50;;;0.00;1.00;;;;;;5076810;28;20045;-87
2023/12/05 02:37:48;;;;;;;0.63;0.63;;;0.00;1.00;;;;;;5078147;28;20048;-87
2023/12/05 02:40:16;;;;;;;0.10;0.10;;;0.00;1.00;;;;;;5075989;28;20037;-88
2023/12/05 02:42:44;;;;;;;1.10;1.10;;;0.00;1.00;;;;;;5077885;28;20444;-87
2023/12/05 02:45:16;;;;;;;0.40;0.40;;;-0.10;1.00;;;;;;5075944;28;20059;-88
2023/12/05 02:47:44;;;;;;;1.73;1.23;;;-0.10;1.00;;;;;;5078214;28;20064;-88
2023/12/05 02:50:09;;;;;;;0.03;0.03;;;-0.10;1.00;;;;;;5078816;28;20092;-88
2023/12/05 02:52:35;;;;;;;2.43;1.53;;;-0.10;1.00;;;;;;5077136;28;20098;-88
2023/12/05 02:55:01;;;;;;;0.37;0.37;;;-0.10;1.00;;;;;;5077044;28;20070;-88
2023/12/05 02:57:26;;;;;;;2.00;0.67;;;-0.10;1.00;;;;;;5078525;28;20040;-87
2023/12/05 02:59:52;;;;;;;0.20;0.20;;;-0.10;27.50;;;;;;5078766;28;20054;-88
2023/12/05 03:02:17;;;;;;;1.00;1.00;;;-0.10;69.40;;;;;;5078532;28;20044;-88
2023/12/05 03:04:43;;;;;;;2.37;2.23;;;-0.10;99.90;;;;;;5078558;28;20045;-88
2023/12/05 03:07:09;;;;;;;0.93;0.83;;;-0.10;99.90;;;;;;5078622;28;20041;-88
2023/12/05 03:09:34;;;;;;;13.33;3.70;;;-0.10;99.90;;;;;;5078252;28;20170;-88
2023/12/05 03:12:00;;;;;;;0.10;0.10;;;-0.10;1.00;;;;;;5075844;28;20040;-88
2023/12/05 03:14:25;;;;;;;1.30;1.20;;;-0.10;1.00;;;;;;5079083;28;20040;-88
2023/12/05 03:16:51;;;;;;;0.30;0.25;;;-0.10;1.00;;;;;;5079063;28;20047;-88
2023/12/05 03:19:17;;;;;;;0.23;0.23;;;-0.10;1.00;;;;;;5079244;28;20428;-88
2023/12/05 03:21:42;;;;;;;0.20;0.20;;;-0.10;1.00;;;;;;5078303;28;20041;-89
2023/12/05 03:24:08;;;;;;;1.00;0.97;;;-0.10;99.90;;;;;;5078582;28;20045;-89
2023/12/05 03:26:33;;;;;;;0.10;0.10;;;-0.10;99.90;;;;;;5078592;28;20041;-89
2023/12/05 03:28:59;;;;;;;0.20;0.20;;;-0.10;99.90;;;;;;5078274;28;20492;-88
2023/12/05 03:31:24;;;;;;;0.77;0.77;;;-0.10;99.90;;;;;;5078814;28;20048;-87
2023/12/05 03:33:50;;;;;;;1.05;1.05;;;-0.10;99.90;;;;;;5076597;28;20178;-88
2023/12/05 03:36:15;;;;;;;0.77;0.77;;;-0.20;99.90;;;;;;5078734;28;20398;-88
2023/12/05 03:38:41;;;;;;;0.47;0.47;;;-0.20;99.90;;;;;;5079167;28;20051;-88
2023/12/05 03:41:08;;;;;;;0.63;0.63;;;-0.10;99.90;;;;;;5078744;28;20040;-89
2023/12/05 03:43:34;;;;;;;0.20;0.20;;;-0.10;99.90;;;;;;5078832;28;20040;-88
2023/12/05 03:46:00;;;;;;;0.40;0.40;;;-0.10;99.90;;;;;;5078799;28;20094;-88
2023/12/05 03:48:25;;;;;;;0.88;0.88;;;-0.10;99.90;;;;;;5078042;28;20044;-88
2023/12/05 03:50:51;;;;;;;0.20;0.20;;;-0.10;99.90;;;;;;5077598;28;20048;-88
2023/12/05 03:53:17;;;;;;;0.67;0.67;;;-0.10;99.90;;;;;;5078072;28;20055;-88
2023/12/05 03:55:42;;;;;;;0.93;0.87;;;-0.10;99.90;;;;;;5077843;28;20067;-88
2023/12/05 03:58:08;;;;;;;0.93;0.93;;;-0.10;1.00;;;;;;5077875;28;20131;-88
2023/12/05 04:00:34;;;;;;;0.30;0.30;;;-0.10;1.00;;;;;;5078294;28;20049;-88
2023/12/05 04:02:59;;;;;;;0.55;0.55;;;-0.10;1.00;;;;;;5078274;28;20056;-87
2023/12/05 04:05:26;;;;;;;0.17;0.17;;;-0.10;1.00;;;;;;5078265;28;20115;-87
2023/12/05 04:07:51;;;;;;;0.10;0.10;;;-0.10;1.00;;;;;;5078514;28;20044;-88
2023/12/05 04:10:17;;;;;;;0.75;0.75;;;-0.10;1.00;;;;;;5076664;28;20049;-88
2023/12/05 04:12:42;;;;;;;1.75;1.17;;;-0.10;1.00;;;;;;5078968;28;20048;-88
2023/12/05 04:15:08;;;;;;;2.70;1.13;;;-0.10;1.00;;;;;;5078513;28;20436;-88
2023/12/05 04:17:34;;;;;;;0.10;0.10;;;-0.10;1.00;;;;;;5078746;28;20039;-88
2023/12/05 04:20:00;;;;;;;0.47;0.47;;;-0.10;1.00;;;;;;5078557;28;20123;-88
2023/12/05 04:22:26;;;;;;;0.33;0.33;;;-0.10;1.00;;;;;;5078294;28;20058;-88
2023/12/05 04:24:52;;;;;;;0.10;0.10;;;-0.10;1.00;;;;;;5078056;28;20479;-88
2023/12/05 04:27:18;;;;;;;0.10;0.10;;;-0.10;1.00;;;;;;5078035;28;20076;-88
2023/12/05 04:29:44;;;;;;;1.27;1.17;;;-0.10;1.00;;;;;;5078888;28;20047;-88
2023/12/05 04:32:11;;;;;;;0.73;0.73;;;-0.10;1.00;;;;;;5079288;28;20044;-88
2023/12/05 04:34:37;;;;;;;2.37;1.97;;;-0.10;1.00;;;;;;5078367;28;20047;-89
2023/12/05 04:37:02;;;;;;;1.73;1.63;;;-0.10;1.00;;;;;;5078325;28;20041;-87
2023/12/05 04:39:28;;;;;;;0.50;0.50;;;-0.10;1.00;;;;;;5078116;28;20043;-88
2023/12/05 04:41:53;;;;;;;0.38;0.38;;;-0.10;1.00;;;;;;5077815;28;20096;-88
2023/12/05 04:44:20;;;;;;;1.50;1.00;;;-0.10;1.00;;;;;;5077342;28;20066;-88
2023/12/05 04:46:46;;;;;;;0.00;0.00;;;-0.10;1.00;;;;;;5079630;28;20063;-88
2023/12/05 04:49:11;;;;;;;0.37;0.37;;;-0.10;1.00;;;;;;5081196;28;20036;-88
2023/12/05 04:51:37;;;;;;;0.43;0.43;;;-0.10;1.00;;;;;;5081902;28;20062;-88
2023/12/05 04:54:03;;;;;;;1.00;0.97;;;-0.10;1.00;;;;;;5081665;28;20100;-87
2023/12/05 04:56:28;;;;;;;2.03;1.83;;;-0.10;1.00;;;;;;5081093;28;20055;-87
2023/12/05 04:58:54;;;;;;;0.87;0.80;;;-0.10;1.00;;;;;;5080716;28;20052;-87
2023/12/05 05:01:20;;;;;;;0.50;0.50;;;-0.10;1.00;;;;;;5066635;28;20047;-87
2023/12/05 05:03:46;;;;;;;2.53;1.13;;;0.00;1.00;;;;;;5060967;28;20045;-87
2023/12/05 05:06:11;;;;;;;1.40;1.30;;;-0.10;1.00;;;;;;5059904;28;20091;-87
2023/12/05 05:08:37;;;;;;;1.53;1.40;;;-0.10;1.00;;;;;;5060991;28;20479;-88
2023/12/05 05:11:03;;;;;;;0.13;0.13;;;0.00;1.00;;;;;;5072819;28;20037;-87
2023/12/05 05:13:29;;;;;;;1.40;1.30;;;0.00;1.00;;;;;;5081064;28;20053;-87
2023/12/05 05:15:54;;;;;;;0.97;0.73;;;0.00;1.00;;;;;;5078281;28;20060;-87
2023/12/05 05:18:20;;;;;;;0.85;0.85;;;0.00;1.00;;;;;;5078369;28;20401;-87
2023/12/05 05:20:45;;;;;;;1.70;1.60;;;-0.10;1.00;;;;;;5077584;28;20494;-87
2023/12/05 05:23:11;;;;;;;0.57;0.57;;;0.00;1.00;;;;;;5077768;28;20052;-87
2023/12/05 05:25:37;;;;;;;1.00;0.97;;;0.00;1.00;;;;;;5075781;28;20040;-86
2023/12/05 05:28:02;;;;;;;0.97;0.97;;;0.00;1.00;;;;;;5078236;28;20080;-87
2023/12/05 05:30:28;;;;;;;0.10;0.10;;;0.00;1.00;;;;;;5077865;28;20032;-87
2023/12/05 05:32:53;;;;;;;3.33;2.83;;;-0.10;1.00;;;;;;5078287;28;20076;-87
2023/12/05 05:35:19;;;;;;;2.23;1.37;;;0.00;1.00;;;;;;5078252;28;20070;-87
2023/12/05 05:37:44;;;;;;;0.97;0.93;;;-0.10;1.50;;;;;;5078192;28;20055;-87
2023/12/05 05:40:10;;;;;;;0.50;0.50;;;0.00;3.10;;;;;;5066907;28;20047;-87
2023/12/05 05:42:36;;;;;;;4.03;3.10;;;-0.10;4.50;;;;;;5072183;28;20039;-87
2023/12/05 05:45:02;;;;;;;3.50;1.33;;;-0.10;6.20;;;;;;5075083;28;20086;-87
2023/12/05 05:47:28;;;;;;;0.67;0.63;;;-0.10;7.90;;;;;;5077773;28;20047;-87
2023/12/05 05:49:54;;;;;;;0.83;0.60;;;0.00;9.60;;;;;;5071265;28;20055;-87
2023/12/05 05:52:20;;;;;;;0.80;0.80;;;-0.10;10.50;;;;;;5076596;28;20036;-87
2023/12/05 05:54:48;;;;;;;0.13;0.13;;;0.00;11.70;;;;;;5077004;28;20123;-87
2023/12/05 05:57:14;;;;;;;0.50;0.43;;;-0.10;12.60;;;;;;5075835;28;20493;-87
2023/12/05 05:59:42;;;;;;;0.20;0.20;;;0.00;13.80;;;;;;5074874;28;20048;-87
2023/12/05 06:02:08;;;;;;;0.30;0.30;;;-0.10;14.90;;;;;;5076816;28;20149;-87
2023/12/05 06:04:39;;;;;;;1.85;1.55;;;-0.10;15.90;;;;;;5077151;28;20079;-87
2023/12/05 06:07:05;;;;;;;0.47;0.47;;;0.00;19.00;;;;;;5077290;28;20076;-87
2023/12/05 06:09:30;;;;;;;1.92;1.35;;;-0.10;19.80;;;;;;5062348;28;20036;-87
2023/12/05 06:11:56;;;;;;;1.35;1.25;;;0.00;20.50;;;;;;5075594;28;20041;-87
2023/12/05 06:14:21;;;;;;;1.98;1.88;;;-0.10;21.00;;;;;;5076807;28;20562;-87
2023/12/05 06:16:47;;;;;;;1.50;0.70;;;-0.10;21.60;;;;;;5077168;28;20080;-87
2023/12/05 06:19:13;;;;;;;1.02;0.93;;;-0.10;21.90;;;;;;5075020;28;20498;-87
2023/12/05 06:21:38;;;;;;;0.57;0.32;;;-0.10;22.30;;;;;;5068911;28;20482;-87
2023/12/05 06:24:04;;;;;;;0.97;0.97;;;-0.10;21.90;;;;;;5068750;28;20109;-87
2023/12/05 06:26:30;;;;;;;2.63;1.80;;;-0.10;21.60;;;;;;5071817;28;20037;-87
2023/12/05 06:28:55;;;;;;;1.23;1.15;;;0.00;24.50;;;;;;5061085;28;20398;-87
2023/12/05 06:31:21;;;;;;;0.22;0.22;;;-0.10;26.80;;;;;;5070747;28;20032;-87
2023/12/05 06:33:46;;;;;;;0.83;0.83;;;-0.10;28.80;;;;;;5067249;28;20499;-87
2023/12/05 06:36:14;;;;;;;1.23;1.13;;;-0.10;32.30;;;;;;5063258;28;20041;-87
2023/12/05 06:38:39;;;;;;;0.38;0.38;;;-0.10;35.20;;;;;;5074254;28;20040;-87
2023/12/05 06:41:07;;;;;;;0.40;0.40;;;-0.10;35.70;;;;;;5065918;28;20094;-87
2023/12/05 06:43:32;;;;;;;1.37;1.27;;;-0.10;36.60;;;;;;5073976;28;20490;-86
2023/12/05 06:45:58;;;;;;;0.10;0.10;;;-0.10;36.50;;;;;;5073689;28;20047;-87
2023/12/05 06:48:23;;;;;;;0.43;0.43;;;-0.10;37.50;;;;;;5073693;28;20475;-87
2023/12/05 06:50:49;;;;;;;0.00;0.00;;;-0.10;37.90;;;;;;5064100;28;20052;-87
2023/12/05 06:53:14;;;;;;;0.88;0.50;;;-0.10;38.20;;;;;;5072555;28;20076;-86
2023/12/05 06:55:40;;;;;;;1.63;1.52;;;-0.10;38.80;;;;;;5072261;28;20474;-86
2023/12/05 06:58:06;;;;;;;0.30;0.30;;;-0.10;39.90;;;;;;5071540;28;20067;-87
2023/12/05 07:00:31;;;;;;;0.60;0.60;;;-0.10;40.70;;;;;;5072954;28;20048;-86
2023/12/05 07:02:57;;;;;;;1.35;1.25;;;-0.10;41.50;;;;;;5073267;28;20068;-87
2023/12/05 07:05:22;;;;;;;3.30;1.80;;;-0.10;42.00;;;;;;5071387;28;20509;-86
2023/12/05 07:07:49;;;;;;;0.23;0.23;;;-0.10;43.40;;;;;;5072982;28;20127;-86
2023/12/05 07:10:14;;;;;;;0.10;0.10;;;-0.10;44.10;;;;;;5068876;28;20542;-86
2023/12/05 07:12:40;;;;;;;1.50;1.17;;;-0.10;49.20;;;;;;5073396;28;20033;-86
2023/12/05 07:15:08;;;;;;;0.70;0.70;;;-0.10;52.50;;;;;;5072278;28;20474;-86
2023/12/05 07:17:34;;;;;;;1.80;1.50;;;-0.10;53.60;;;;;;5072564;28;20047;-86
2023/12/05 07:19:59;;;;;;;0.10;0.10;;;-0.10;55.70;;;;;;5070299;28;20036;-87
2023/12/05 07:22:25;;;;;;;2.13;2.00;;;-0.10;57.00;;;;;;5059849;28;20048;-86
2023/12/05 07:24:50;;;;;;;1.45;1.35;;;0.00;59.10;;;;;;5072367;28;20470;-87
2023/12/05 07:27:16;;;;;;;1.47;1.37;;;-0.10;59.60;;;;;;5071418;28;20040;-86
2023/12/05 07:29:41;;;;;;;0.50;0.50;;;-0.10;66.10;;;;;;5066129;28;20045;-86
2023/12/05 07:32:07;;;;;;;0.57;0.57;;;-0.10;67.60;;;;;;5062622;28;20083;-86
2023/12/05 07:34:32;;;;;;;0.30;0.30;;;-0.10;68.50;;;;;;5066980;28;20044;-86
2023/12/05 07:36:58;;;;;;;0.40;0.40;;;-0.10;69.90;;;;;;5052495;28;20067;-86
2023/12/05 07:39:25;;;;;;;2.37;1.60;;;-0.10;71.30;;;;;;5069247;28;20041;-86
2023/12/05 07:41:51;;;;;;;0.13;0.13;;;-0.10;72.20;;;;;;5068289;28;20111;-86
2023/12/05 07:44:17;;;;;;;2.13;1.07;;;-0.10;72.90;;;;;;5068847;28;20128;-86
2023/12/05 07:46:43;;;;;;;0.68;0.68;;;-0.10;74.40;;;;;;5070613;28;20040;-86
2023/12/05 07:49:09;;;;;;;5.93;3.30;;;-0.10;76.90;;;;;;5070301;28;20109;-86
2023/12/05 07:51:36;;;;;;;0.83;0.83;;;-0.10;78.20;;;;;;5065443;28;20055;-86
2023/12/05 07:54:01;;;;;;;0.40;0.40;;;-0.10;79.00;;;;;;5070753;28;20063;-86
2023/12/05 07:56:27;;;;;;;1.63;1.53;;;0.00;81.40;;;;;;5070208;28;20040;-85
2023/12/05 07:58:52;;;;;;;0.80;0.80;;;0.00;82.20;;;;;;5068065;28;20049;-85
2023/12/05 08:01:18;;;;;;;1.70;1.50;;;-0.10;82.90;;;;;;5064192;28;20044;-85
2023/12/05 08:03:43;;;;;;;0.77;0.77;;;0.00;83.70;;;;;;5070282;28;20406;-85
2023/12/05 08:06:09;;;;;;;0.67;0.67;;;0.00;84.60;;;;;;5070720;28;20043;-85
2023/12/05 08:08:35;;;;;;;0.60;0.60;;;0.00;85.00;;;;;;5068547;28;20541;-85
2023/12/05 08:11:01;;;;;;;0.10;0.10;;;0.00;85.20;;;;;;5069194;28;20166;-85
2023/12/05 08:13:27;;;;;;;0.40;0.40;;;0.00;87.80;;;;;;5069159;28;20040;-85
2023/12/05 08:15:53;;;;;;;0.10;0.10;;;0.00;90.50;;;;;;5065264;28;20036;-85
2023/12/05 08:18:19;;;;;;;0.27;0.27;;;0.00;87.20;;;;;;5064428;28;20045;-85
2023/12/05 08:20:45;;;;;;;5.47;1.97;;;0.00;86.80;;;;;;5070580;28;20063;-85
2023/12/05 08:23:10;;;;;;;1.90;1.80;;;0.00;88.00;;;;;;5074234;28;20454;-85
2023/12/05 08:25:36;;;;;;;0.57;0.57;;;0.00;90.00;;;;;;5074503;28;20044;-85
2023/12/05 08:28:02;;;;;;;1.93;1.57;;;0.00;89.00;;;;;;5073999;28;20052;-86
2023/12/05 08:30:27;;;;;;;1.13;1.03;;;0.00;88.90;;;;;;5074345;28;20052;-86
2023/12/05 08:32:56;;;;;;;1.67;1.50;;;0.70;90.70;;;;;;5075450;28;20428;-85
2023/12/05 08:35:22;;;;;;;0.67;0.67;;;0.10;91.00;;;;;;5074466;28;20040;-85
2023/12/05 08:37:48;;;;;;;8.13;2.37;;;0.10;91.70;;;;;;5072811;28;20049;-85
2023/12/05 08:40:14;;;;;;;0.82;0.80;;;0.10;92.30;;;;;;5073252;28;20119;-85
2023/12/05 08:42:42;;;;;;;0.87;0.87;;;0.10;92.70;;;;;;5073097;28;20029;-85
2023/12/05 08:45:10;;;;;;;2.67;2.23;;;0.10;91.10;;;;;;5073701;28;20048;-85
2023/12/05 08:47:36;;;;;;;2.07;1.60;;;0.10;90.30;;;;;;5073508;28;20036;-85
2023/12/05 08:50:02;;;;;;;2.03;1.50;;;0.10;92.50;;;;;;5071522;28;20033;-85
2023/12/05 08:52:28;;;;;;;0.40;0.40;;;0.10;94.50;;;;;;5071973;28;20109;-85
2023/12/05 08:54:53;;;;;;;1.47;1.37;;;0.10;95.40;;;;;;5081631;28;20092;-85
2023/12/05 08:57:19;;;;;;;2.50;1.73;;;0.20;96.60;;;;;;5082629;28;20494;-85
2023/12/05 08:59:45;;;;;;;0.57;0.57;;;0.20;97.60;;;;;;5070386;28;20410;-85
2023/12/05 09:02:10;;;;;;;0.73;0.70;;;0.20;97.80;;;;;;5070098;28;20139;-85
2023/12/05 09:04:37;;;;;;;0.67;0.67;;;0.20;98.40;;;;;;5071968;28;20170;-85
2023/12/05 09:07:03;;;;;;;0.60;0.60;;;0.20;99.90;;;;;;5073470;28;20045;-85
2023/12/05 09:09:28;;;;;;;1.38;1.27;;;0.20;99.90;;;;;;5071425;28;20052;-85
2023/12/05 09:11:55;;;;;;;0.87;0.87;;;0.20;99.90;;;;;;5071411;28;20035;-85
2023/12/05 09:14:21;;;;;;;0.23;0.23;;;0.20;99.90;;;;;;5060181;28;20548;-85
2023/12/05 09:16:46;;;;;;;1.30;0.80;;;0.30;99.90;;;;;;5072140;28;20080;-85
2023/12/05 09:19:12;;;;;;;0.73;0.73;;;0.30;99.90;;;;;;5072507;28;20064;-85
2023/12/05 09:21:38;;;;;;;0.10;0.10;;;0.30;99.90;;;;;;5072223;28;20079;-85
2023/12/05 09:24:10;;;;;;;0.25;0.25;;;0.30;99.90;;;;;;5072184;28;20098;-85
2023/12/05 09:27:24;;;;;;;0.73;0.73;;;0.30;99.90;;;;;;5070644;28;20048;-85
2023/12/05 09:29:33;;;;;;;0.73;0.73;;;0.30;99.90;;;;;;5066126;28;20539;-85
2023/12/05 09:31:58;;;;;;;1.42;1.33;;;0.30;99.90;;;;;;5071701;28;20506;-85
2023/12/05 09:34:24;;;;;;;3.37;2.27;;;0.30;99.90;;;;;;5071883;28;20040;-85
2023/12/05 09:36:49;;;;;;;1.73;1.50;;;0.30;99.90;;;;;;5069622;28;20044;-85
2023/12/05 09:39:15;;;;;;;1.37;1.27;;;0.30;99.90;;;;;;5071060;28;20171;-85
2023/12/05 09:41:52;;;;;;;4.88;1.05;;;0.30;99.90;;;;;;5071672;28;20044;-85
2023/12/05 09:44:21;;;;;;;1.40;1.30;;;0.40;99.90;;;;;;5065195;28;20041;-85
2023/12/05 09:46:54;;;;;;;1.17;1.13;;;0.40;99.90;;;;;;5071268;28;20048;-85
2023/12/05 09:49:25;;;;;;;0.63;0.63;;;0.40;99.90;;;;;;5066184;28;20041;-85
2023/12/05 09:51:51;;;;;;;1.40;1.27;;;0.30;99.90;;;;;;5075542;28;20033;-85
2023/12/05 09:54:16;;;;;;;0.95;0.95;;;0.40;99.90;;;;;;5075564;28;20085;-85
2023/12/05 09:56:42;;;;;;;1.47;1.07;;;0.40;99.90;;;;;;5075218;28;20075;-85
2023/12/05 09:59:10;;;;;;;0.77;0.77;;;0.40;99.90;;;;;;5073574;28;20129;-85
2023/12/05 10:01:36;;;;;;;3.03;2.67;;;0.40;99.90;;;;;;5073619;28;20123;-85
2023/12/05 10:04:02;;;;;;;3.30;2.58;;;0.40;99.90;;;;;;5074736;28;20040;-85
2023/12/05 10:06:31;;;;;;;0.65;0.65;;;0.40;99.90;;;;;;5074512;28;20048;-85
2023/12/05 10:08:57;;;;;;;2.38;2.17;;;0.40;99.90;;;;;;5074591;28;20086;-84
2023/12/05 10:11:27;;;;;;;1.98;1.08;;;0.50;99.90;;;;;;5074774;28;20076;-85
2023/12/05 10:13:53;;;;;;;0.10;0.10;;;0.50;99.90;;;;;;5074779;28;20028;-84
2023/12/05 10:16:22;;;;;;;0.80;0.80;;;0.50;99.90;;;;;;5074498;28;20052;-85
2023/12/05 10:18:48;;;;;;;0.77;0.77;;;0.50;99.90;;;;;;5066246;28;20100;-85
2023/12/05 10:21:13;;;;;;;1.73;1.30;;;0.50;99.90;;;;;;5074445;28;20048;-85
2023/12/05 10:23:39;;;;;;;1.55;1.45;;;0.50;99.90;;;;;;5074680;28;20135;-84
2023/12/05 10:26:05;;;;;;;1.50;1.40;;;0.60;99.90;;;;;;5074390;28;20429;-84
2023/12/05 10:28:30;;;;;;;1.90;0.93;;;0.60;99.90;;;;;;5074495;28;20039;-84
2023/12/05 10:30:57;;;;;;;2.05;1.88;;;0.60;99.90;;;;;;5073137;28;20079;-85
2023/12/05 10:33:23;;;;;;;1.65;1.27;;;0.60;99.90;;;;;;5074056;28;20117;-84
2023/12/05 10:35:49;;;;;;;2.33;1.63;;;0.60;99.90;;;;;;5070114;28;20222;-85
2023/12/05 10:38:17;;;;;;;0.52;0.52;;;0.50;99.90;;;;;;5073397;28;20411;-84
2023/12/05 10:40:55;;;;;;;1.35;0.90;;;0.60;99.90;;;;;;5072820;28;20443;-84
2023/12/05 10:43:22;;;;;;;0.65;0.65;;;0.50;99.90;;;;;;5049193;28;20498;-85
2023/12/05 10:45:48;;;;;;;0.67;0.67;;;0.50;99.90;;;;;;5074592;28;20120;-85
2023/12/05 10:48:15;;;;;;;1.45;0.80;;;0.60;99.90;;;;;;5073501;28;20432;-85
2023/12/05 10:50:42;;;;;;;3.40;1.70;;;0.50;99.90;;;;;;5071491;28;20041;-84
2023/12/05 10:53:08;;;;;;;1.45;1.15;;;0.60;99.90;;;;;;5072219;28;20485;-85
2023/12/05 10:55:34;;;;;;;0.67;0.67;;;0.60;99.90;;;;;;5073215;28;20066;-84
2023/12/05 10:58:00;;;;;;;0.60;0.57;;;0.70;99.90;;;;;;5074616;28;20067;-85
2023/12/05 11:00:30;;;;;;;1.40;1.30;;;0.70;99.90;;;;;;5074039;28;20044;-85
2023/12/05 11:02:56;;;;;;;2.35;2.05;;;0.70;99.90;;;;;;5072841;28;20040;-85
2023/12/05 11:05:26;;;;;;;0.68;0.68;;;0.70;99.90;;;;;;5074024;28;20033;-85
2023/12/05 11:07:52;;;;;;;1.13;1.10;;;0.80;99.90;;;;;;5072621;28;20045;-86
2023/12/05 11:10:17;;;;;;;0.83;0.83;;;0.80;99.90;;;;;;5073654;28;20083;-85
2023/12/05 11:12:48;;;;;;;0.80;0.80;;;0.80;99.90;;;;;;5073289;28;20466;-85
2023/12/05 11:15:16;;;;;;;1.00;1.00;;;0.80;99.90;;;;;;5073174;28;20127;-85
2023/12/05 11:17:50;;;;;;;1.43;1.33;;;0.80;99.90;;;;;;5073469;28;20124;-85
2023/12/05 11:20:37;;;;;;;1.15;1.08;;;0.80;99.90;;;;;;5072126;28;20444;-85
2023/12/05 11:23:02;;;;;;;;;;;0.80;99.90;;;;;;5067254;28;20045;-84
2023/12/05 11:25:44;;;;;;;1.27;1.17;;;0.80;99.90;;;;;;5073223;28;20298;-85
2023/12/05 11:28:36;;;;;;;0.43;0.43;;;0.70;99.90;;;;;;5067150;28;20047;-85
2023/12/05 11:31:14;;;;;;;1.10;1.05;;;0.70;99.90;;;;;;5064419;28;20077;-85
2023/12/05 11:34:17;;;;;;;0.73;0.73;;;0.70;99.90;;;;;;5072940;28;20036;-85
2023/12/05 11:37:13;;;;;;;1.47;1.27;;;0.60;99.90;;;;;;5073119;28;20054;-84
2023/12/05 11:39:39;;;;;;;2.75;1.23;;;0.70;99.90;;;;;;5071713;28;20040;-85
2023/12/05 11:42:14;;;;;;;3.38;2.10;;;0.70;99.90;;;;;;5072855;28;20371;-85
2023/12/05 11:44:40;;;;;;;0.68;0.68;;;0.70;99.90;;;;;;5072818;28;20067;-85
2023/12/05 11:47:21;;;;;;;1.47;1.37;;;0.70;99.90;;;;;;5072927;28;20105;-85
2023/12/05 11:49:49;;;;;;;2.00;1.90;;;0.60;99.90;;;;;;5072795;28;20094;-84
2023/12/05 11:52:16;;;;;;;3.45;3.20;;;0.70;99.90;;;;;;5072811;28;20106;-85
2023/12/05 11:54:42;;;;;;;3.20;2.90;;;0.70;99.90;;;;;;5071069;28;20040;-85
2023/12/05 11:57:23;;;;;;;0.10;0.10;;;0.70;99.90;;;;;;5072553;28;20110;-85
2023/12/05 11:59:54;;;;;;;0.88;0.88;;;0.70;99.90;;;;;;5072554;28;20087;-85
2023/12/05 12:02:32;;;;;;;1.25;1.15;;;0.70;99.90;;;;;;5073016;28;20445;-85
2023/12/05 12:05:11;;;;;;;1.57;1.47;;;0.70;99.90;;;;;;5074020;28;20036;-84
2023/12/05 12:08:04;;;;;;;3.28;2.38;;;0.70;99.90;;;;;;5064708;28;20498;-85
2023/12/05 12:10:32;;;;;;;3.17;2.17;;;0.70;99.90;;;;;;5069910;28;20061;-85
2023/12/05 12:12:58;;;;;;;2.93;1.80;;;0.70;99.90;;;;;;5072651;28;20098;-85
2023/12/05 12:15:24;;;;;;;3.00;1.08;;;0.60;99.90;;;;;;5072383;28;20090;-85
2023/12/05 12:17:50;;;;;;;5.05;1.55;;;0.60;99.90;;;;;;5072679;28;20040;-85
2023/12/05 12:20:17;;;;;;;1.02;0.95;;;0.60;99.90;;;;;;5071153;28;20082;-85
2023/12/05 12:22:48;;;;;;;2.83;1.50;;;0.60;99.90;;;;;;5072320;28;20097;-85
2023/12/05 12:25:14;;;;;;;3.30;1.60;;;0.60;99.90;;;;;;5072469;28;20502;-85
2023/12/05 12:27:40;;;;;;;1.70;1.33;;;0.60;99.90;;;;;;5072432;28;20048;-85
2023/12/05 12:30:13;;;;;;;2.63;2.42;;;0.60;99.90;;;;;;5073582;28;20053;-85
2023/12/05 12:32:53;;;;;;;0.63;0.40;;;0.60;99.90;;;;;;5076605;28;20051;-86
2023/12/05 12:35:22;;;;;;;0.70;0.63;;;0.50;99.90;;;;;;5075188;28;20068;-85
2023/12/05 12:37:51;;;;;;;1.95;1.20;;;0.60;99.90;;;;;;5076002;28;20120;-85
2023/12/05 12:40:18;;;;;;;0.65;0.65;;;0.60;99.90;;;;;;5076109;28;20045;-85
2023/12/05 12:42:47;;;;;;;1.90;1.73;;;0.60;99.90;;;;;;5075281;28;20051;-84
2023/12/05 12:45:13;;;;;;;0.63;0.63;;;0.50;99.90;;;;;;5066402;28;20040;-85
2023/12/05 12:47:40;;;;;;;1.73;1.47;;;0.60;99.90;;;;;;5073253;28;20096;-85
2023/12/05 12:50:07;;;;;;;2.28;1.40;;;0.60;99.90;;;;;;5074239;28;20582;-85
2023/12/05 12:52:33;;;;;;;3.10;2.28;;;0.50;97.90;;;;;;5075931;28;20040;-85
2023/12/05 12:54:58;;;;;;;3.03;1.67;;;0.50;90.40;;;;;;5074562;28;20490;-85
2023/12/05 12:57:24;;;;;;;0.70;0.70;;;0.50;74.50;;;;;;5075748;28;20045;-85